createdAt,value
2022-10-28T00:01:09.776Z,5.90
2022-10-28T00:03:42.076Z,5.15
2022-10-28T00:06:14.716Z,6.05
2022-10-28T00:08:41.934Z,5.95
2022-10-28T00:11:14.162Z,6.10
2022-10-28T00:13:41.504Z,5.82
2022-10-28T00:16:14.256Z,6.20
2022-10-28T00:18:41.700Z,6.05
2022-10-28T00:21:12.895Z,5.82
2022-10-28T00:23:40.109Z,6.13
2022-10-28T00:26:19.232Z,5.57
2022-10-28T00:28:54.659Z,5.93
2022-10-28T00:31:23.927Z,5.50
2022-10-28T00:33:51.014Z,6.10
2022-10-28T00:36:25.408Z,6.07
2022-10-28T00:38:53.651Z,5.47
2022-10-28T00:41:23.847Z,5.40
2022-10-28T00:43:54.312Z,5.03
2022-10-28T00:46:44.683Z,5.47
2022-10-28T00:49:22.415Z,5.05
2022-10-28T00:51:54.117Z,5.32
2022-10-28T00:54:21.500Z,4.90
2022-10-28T00:56:51.664Z,5.53
2022-10-28T00:59:27.846Z,5.38
2022-10-28T01:01:55.011Z,4.60
2022-10-28T01:04:22.998Z,4.65
2022-10-28T01:06:51.260Z,4.68
2022-10-28T01:09:17.734Z,5.47
2022-10-28T01:11:48.857Z,5.20
2022-10-28T01:14:17.523Z,4.80
2022-10-28T01:16:57.205Z,5.85
2022-10-28T01:19:51.468Z,6.10
2022-10-28T01:22:25.810Z,5.57
2022-10-28T01:25:03.776Z,5.22
2022-10-28T01:27:53.117Z,5.50
2022-10-28T01:30:23.281Z,4.40
2022-10-28T01:33:18.951Z,4.55
2022-10-28T01:36:02.856Z,5.85
2022-10-28T01:38:54.560Z,5.30
2022-10-28T01:41:34.140Z,4.97
2022-10-28T01:44:14.288Z,5.07
2022-10-28T01:46:43.548Z,5.82
2022-10-28T01:49:30.628Z,6.13
2022-10-28T01:52:03.341Z,5.13
2022-10-28T01:54:34.018Z,4.18
2022-10-28T01:57:03.285Z,3.85
2022-10-28T01:59:30.772Z,4.03
2022-10-28T02:01:57.673Z,4.82
2022-10-28T02:04:24.264Z,4.00
2022-10-28T02:06:55.789Z,4.22
2022-10-28T02:09:30.003Z,4.13
2022-10-28T02:12:24.890Z,4.10
2022-10-28T02:15:09.576Z,3.35
2022-10-28T02:18:09.499Z,3.47
2022-10-28T02:20:58.998Z,4.13
2022-10-28T02:23:33.942Z,4.03
2022-10-28T02:26:00.398Z,3.80
2022-10-28T02:28:41.391Z,3.67
2022-10-28T02:31:20.640Z,5.20
2022-10-28T02:33:52.230Z,4.30
2022-10-28T02:36:22.108Z,4.18
2022-10-28T02:38:58.157Z,4.45
2022-10-28T02:41:37.272Z,4.35
2022-10-28T02:44:09.664Z,5.68
2022-10-28T02:46:38.773Z,4.20
2022-10-28T02:49:10.028Z,4.78
2022-10-28T02:51:45.049Z,3.90
2022-10-28T02:54:31.777Z,4.00
2022-10-28T02:57:06.787Z,4.10
2022-10-28T02:59:33.290Z,4.35
2022-10-28T03:01:59.891Z,3.72
2022-10-28T03:04:26.653Z,4.30
2022-10-28T03:06:53.121Z,5.13
2022-10-28T03:09:19.596Z,5.75
2022-10-28T03:11:46.061Z,4.10
2022-10-28T03:14:14.710Z,4.45
2022-10-28T03:16:42.236Z,4.00
2022-10-28T03:21:40.127Z,4.05
2022-10-28T03:24:06.982Z,4.43
2022-10-28T03:26:33.429Z,4.85
2022-10-28T03:28:59.911Z,4.80
2022-10-28T03:31:26.411Z,4.03
2022-10-28T03:33:52.888Z,3.75
2022-10-28T03:36:19.354Z,3.97
2022-10-28T03:38:45.778Z,3.30
2022-10-28T03:41:12.234Z,4.35
2022-10-28T03:43:38.663Z,3.65
2022-10-28T03:46:05.235Z,4.07
2022-10-28T03:48:31.698Z,3.45
2022-10-28T03:50:58.146Z,3.50
2022-10-28T03:53:27.586Z,3.60
2022-10-28T03:55:59.290Z,3.78
2022-10-28T03:58:26.268Z,3.28
2022-10-28T04:00:53.570Z,4.32
2022-10-28T04:03:21.852Z,4.88
2022-10-28T04:05:48.895Z,4.95
2022-10-28T04:08:16.764Z,4.90
2022-10-28T04:10:47.321Z,5.22
2022-10-28T04:13:14.709Z,5.40
2022-10-28T04:15:41.205Z,5.13
2022-10-28T04:18:08.051Z,5.10
2022-10-28T04:20:34.859Z,4.28
2022-10-28T04:23:01.683Z,4.05
2022-10-28T04:25:28.749Z,4.15
2022-10-28T04:27:55.670Z,3.95
2022-10-28T04:30:22.447Z,5.97
2022-10-28T04:32:48.862Z,4.15
2022-10-28T04:35:15.467Z,5.07
2022-10-28T04:37:41.923Z,4.38
2022-10-28T04:40:09.474Z,3.95
2022-10-28T04:42:35.926Z,4.07
2022-10-28T04:45:02.395Z,3.92
2022-10-28T04:47:28.887Z,4.40
2022-10-28T04:49:55.346Z,4.15
2022-10-28T04:52:21.791Z,4.28
2022-10-28T04:54:48.238Z,4.47
2022-10-28T04:57:14.716Z,6.28
2022-10-28T04:59:41.204Z,4.40
2022-10-28T05:02:07.860Z,3.85
2022-10-28T05:04:34.400Z,4.63
2022-10-28T05:07:00.898Z,3.83
2022-10-28T05:09:27.342Z,4.32
2022-10-28T05:11:54.382Z,3.60
2022-10-28T05:14:20.881Z,4.90
2022-10-28T05:16:48.076Z,4.63
2022-10-28T05:19:14.587Z,4.65
2022-10-28T05:21:41.004Z,6.22
2022-10-28T05:24:07.633Z,4.55
2022-10-28T05:26:34.116Z,5.30
2022-10-28T05:29:00.603Z,6.00
2022-10-28T05:31:27.071Z,5.40
2022-10-28T05:33:53.548Z,5.13
2022-10-28T05:36:20.078Z,5.30
2022-10-28T05:38:46.553Z,6.13
2022-10-28T05:41:13.074Z,5.45
2022-10-28T05:43:39.582Z,6.35
2022-10-28T05:46:06.128Z,5.28
2022-10-28T05:48:32.585Z,5.00
2022-10-28T05:50:59.033Z,4.25
2022-10-28T05:53:25.470Z,4.70
2022-10-28T05:55:51.887Z,4.68
2022-10-28T05:58:18.339Z,4.95
2022-10-28T06:00:44.870Z,4.65
2022-10-28T06:03:12.312Z,4.47
2022-10-28T06:05:45.956Z,4.30
2022-10-28T06:08:13.365Z,7.03
2022-10-28T06:10:40.894Z,6.90
2022-10-28T06:13:07.422Z,7.97
2022-10-28T06:15:34.058Z,7.05
2022-10-28T06:18:00.493Z,7.18
2022-10-28T06:20:26.943Z,6.20
2022-10-28T06:22:55.492Z,6.25
2022-10-28T06:25:23.936Z,5.63
2022-10-28T06:27:58.549Z,5.07
2022-10-28T06:30:26.427Z,6.22
2022-10-28T06:32:56.354Z,4.82
2022-10-28T06:35:22.979Z,7.28
2022-10-28T06:37:56.152Z,6.47
2022-10-28T06:40:25.086Z,7.50
2022-10-28T06:43:04.710Z,6.00
2022-10-28T06:45:32.932Z,7.13
2022-10-28T06:48:04.298Z,7.53
2022-10-28T06:50:31.312Z,8.93
2022-10-28T06:52:58.640Z,7.80
2022-10-28T06:55:26.210Z,5.60
2022-10-28T06:57:53.390Z,6.90
2022-10-28T07:00:20.199Z,6.75
2022-10-28T07:02:51.236Z,7.05
2022-10-28T07:05:17.774Z,6.57
2022-10-28T07:07:44.228Z,5.47
2022-10-28T07:10:10.729Z,5.43
2022-10-28T07:12:37.459Z,5.10
2022-10-28T07:15:04.477Z,5.13
2022-10-28T07:17:30.938Z,5.72
2022-10-28T07:19:57.423Z,5.28
2022-10-28T07:22:25.749Z,5.22
2022-10-28T07:24:52.363Z,5.00
2022-10-28T07:27:19.013Z,5.75
2022-10-28T07:29:45.395Z,5.68
2022-10-28T07:32:11.880Z,4.47
2022-10-28T07:34:38.363Z,5.38
2022-10-28T07:37:05.976Z,6.13
2022-10-28T07:39:32.602Z,7.55
2022-10-28T07:42:01.160Z,6.13
2022-10-28T07:44:27.706Z,5.88
2022-10-28T07:46:57.219Z,6.82
2022-10-28T07:49:25.197Z,5.97
2022-10-28T07:51:51.764Z,6.43
2022-10-28T07:54:18.263Z,6.65
2022-10-28T07:56:44.910Z,7.00
2022-10-28T07:59:11.576Z,5.63
2022-10-28T08:01:38.238Z,6.75
2022-10-28T08:04:04.954Z,5.93
2022-10-28T08:06:31.739Z,6.13
2022-10-28T08:08:58.215Z,6.18
2022-10-28T08:11:24.832Z,6.63
2022-10-28T08:13:52.376Z,7.90
2022-10-28T08:16:19.903Z,7.72
2022-10-28T08:18:46.515Z,7.72
2022-10-28T08:21:14.182Z,6.20
2022-10-28T08:23:41.718Z,5.90
2022-10-28T08:26:08.439Z,6.32
2022-10-28T08:28:34.887Z,5.85
2022-10-28T08:31:08.590Z,6.07
2022-10-28T08:33:38.042Z,5.88
2022-10-28T08:36:05.751Z,6.20
2022-10-28T08:38:32.384Z,6.20
2022-10-28T08:41:18.042Z,5.80
2022-10-28T08:43:57.889Z,6.10
2022-10-28T08:46:43.269Z,6.13
2022-10-28T08:49:14.287Z,6.25
2022-10-28T08:52:00.789Z,5.80
2022-10-28T08:54:30.019Z,5.88
2022-10-28T08:57:00.612Z,4.93
2022-10-28T08:59:36.886Z,5.30
2022-10-28T09:04:39.641Z,5.15
2022-10-28T09:07:10.699Z,5.43
2022-10-28T09:09:38.425Z,6.15
2022-10-28T09:12:11.122Z,4.93
2022-10-28T09:14:53.048Z,5.05
2022-10-28T09:17:25.574Z,4.35
2022-10-28T09:20:19.021Z,4.57
2022-10-28T09:22:54.819Z,5.45
2022-10-28T09:25:31.976Z,9.23
2022-10-28T09:28:04.541Z,9.82
2022-10-28T09:30:46.556Z,6.28
2022-10-28T09:33:34.359Z,4.85
2022-10-28T09:36:03.068Z,5.95
2022-10-28T09:38:39.924Z,5.57
2022-10-28T09:41:21.626Z,4.97
2022-10-28T09:44:13.806Z,5.97
2022-10-28T09:46:40.814Z,4.55
2022-10-28T09:49:17.902Z,4.82
2022-10-28T09:51:52.703Z,6.07
2022-10-28T09:54:49.173Z,4.80
2022-10-28T09:57:17.425Z,5.45
2022-10-28T09:59:44.716Z,4.65
2022-10-28T10:02:32.591Z,4.25
2022-10-28T10:05:01.638Z,4.47
2022-10-28T10:08:07.276Z,4.35
2022-10-28T10:10:44.752Z,4.53
2022-10-28T10:13:13.391Z,5.82
2022-10-28T10:15:45.690Z,5.18
2022-10-28T10:18:42.222Z,4.22
2022-10-28T10:21:08.725Z,4.60
2022-10-28T10:23:37.414Z,4.25
2022-10-28T10:26:14.510Z,4.60
2022-10-28T10:28:51.564Z,5.18
2022-10-28T10:31:27.285Z,4.22
2022-10-28T10:33:57.329Z,5.03
2022-10-28T10:38:57.380Z,4.00
2022-10-28T10:41:44.516Z,4.13
2022-10-28T10:44:23.163Z,4.53
2022-10-28T10:47:06.450Z,4.15
2022-10-28T10:49:35.036Z,4.80
2022-10-28T10:52:15.627Z,4.40
2022-10-28T10:54:56.055Z,4.40
2022-10-28T10:57:24.483Z,3.45
2022-10-28T10:59:53.493Z,4.43
2022-10-28T11:02:22.938Z,4.15
2022-10-28T11:04:52.221Z,3.80
2022-10-28T11:07:18.696Z,4.07
2022-10-28T11:09:48.915Z,3.75
2022-10-28T11:12:28.388Z,3.95
2022-10-28T11:15:00.579Z,3.80
2022-10-28T11:17:36.273Z,4.30
2022-10-28T11:20:24.986Z,3.42
2022-10-28T11:23:10.222Z,3.40
2022-10-28T11:25:50.570Z,4.35
2022-10-28T11:28:16.961Z,3.60
2022-10-28T11:31:22.509Z,4.18
2022-10-28T11:33:55.329Z,3.40
2022-10-28T11:36:37.307Z,7.90
2022-10-28T11:39:20.251Z,4.78
2022-10-28T11:41:49.404Z,3.80
2022-10-28T11:44:31.163Z,4.13
2022-10-28T11:47:16.336Z,6.55
2022-10-28T11:50:08.407Z,4.38
2022-10-28T11:52:45.295Z,3.78
2022-10-28T11:55:22.133Z,3.92
2022-10-28T11:58:08.535Z,3.85
2022-10-28T12:00:50.103Z,11.32
2022-10-28T12:03:27.952Z,4.15
2022-10-28T12:06:22.154Z,6.00
2022-10-28T12:09:37.047Z,4.00
2022-10-28T12:12:29.626Z,4.85
2022-10-28T12:15:17.188Z,3.72
2022-10-28T12:17:59.044Z,3.33
2022-10-28T12:20:38.945Z,2.90
2022-10-28T12:23:15.154Z,3.60
2022-10-28T12:25:45.043Z,3.53
2022-10-28T12:28:33.894Z,2.38
2022-10-28T12:31:02.836Z,2.80
2022-10-28T12:33:39.805Z,4.15
2022-10-28T12:36:09.036Z,3.10
2022-10-28T12:38:58.602Z,3.80
2022-10-28T12:41:27.801Z,3.83
2022-10-28T12:44:09.409Z,3.50
2022-10-28T12:47:03.219Z,3.30
2022-10-28T12:49:44.963Z,3.55
2022-10-28T12:52:24.873Z,4.18
2022-10-28T12:55:03.419Z,3.67
2022-10-28T12:57:34.192Z,3.22
2022-10-28T13:00:15.915Z,3.17
2022-10-28T13:03:01.447Z,3.90
2022-10-28T13:05:37.289Z,3.47
2022-10-28T13:08:16.939Z,3.20
2022-10-28T13:10:57.621Z,3.40
2022-10-28T13:13:47.913Z,3.47
2022-10-28T13:16:20.038Z,3.75
2022-10-28T13:19:20.639Z,3.58
2022-10-28T13:21:54.041Z,3.45
2022-10-28T13:24:40.269Z,3.05
2022-10-28T13:27:13.364Z,3.58
2022-10-28T13:29:43.135Z,3.70
2022-10-28T13:32:38.655Z,2.58
2022-10-28T13:35:26.423Z,3.00
2022-10-28T13:37:55.223Z,3.10
2022-10-28T13:40:30.945Z,5.95
2022-10-28T13:43:01.642Z,3.53
2022-10-28T13:45:50.381Z,4.20
2022-10-28T13:48:28.823Z,3.75
2022-10-28T13:51:15.486Z,4.07
2022-10-28T13:53:45.002Z,4.15
2022-10-28T13:56:16.793Z,3.58
2022-10-28T13:58:54.922Z,3.80
2022-10-28T14:02:28.461Z,3.15
2022-10-28T14:04:55.763Z,3.60
2022-10-28T14:07:27.889Z,3.83
2022-10-28T14:09:58.659Z,4.07
2022-10-28T14:12:30.017Z,3.72
2022-10-28T14:15:01.788Z,4.15
2022-10-28T14:17:53.565Z,4.28
2022-10-28T14:20:26.383Z,4.13
2022-10-28T14:22:54.274Z,4.40
2022-10-28T14:25:43.778Z,3.83
2022-10-28T14:28:31.580Z,3.92
2022-10-28T14:31:13.220Z,4.75
2022-10-28T14:33:42.685Z,3.67
2022-10-28T14:36:34.218Z,4.05
2022-10-28T14:39:03.824Z,3.45
2022-10-28T14:41:51.924Z,3.80
2022-10-28T14:45:05.575Z,3.80
2022-10-28T14:48:09.786Z,3.83
2022-10-28T14:50:48.797Z,4.13
2022-10-28T14:53:35.799Z,3.80
2022-10-28T14:56:09.537Z,5.80
2022-10-28T14:58:44.461Z,4.72
2022-10-28T15:01:16.963Z,4.13
2022-10-28T15:03:56.699Z,4.03
2022-10-28T15:06:37.190Z,4.00
2022-10-28T15:09:25.649Z,4.18
2022-10-28T15:12:05.622Z,3.78
2022-10-28T15:14:40.559Z,5.55
2022-10-28T15:17:39.320Z,3.60
2022-10-28T15:20:25.889Z,3.45
2022-10-28T15:22:54.364Z,4.10
2022-10-28T15:25:22.550Z,4.00
2022-10-28T15:27:52.584Z,3.97
2022-10-28T15:30:23.612Z,4.03
2022-10-28T15:32:51.556Z,4.50
2022-10-28T15:35:27.195Z,4.35
2022-10-28T15:38:00.304Z,4.07
2022-10-28T15:40:35.289Z,3.83
2022-10-28T15:43:03.593Z,4.07
2022-10-28T15:45:32.868Z,3.65
2022-10-28T15:48:01.638Z,3.47
2022-10-28T15:50:30.314Z,3.55
2022-10-28T15:53:12.492Z,4.20
2022-10-28T15:58:32.751Z,4.20
2022-10-28T16:00:59.422Z,4.35
2022-10-28T16:03:42.370Z,3.80
2022-10-28T16:06:31.748Z,4.45
2022-10-28T16:09:04.920Z,4.25
2022-10-28T16:11:33.622Z,4.55
2022-10-28T16:14:03.516Z,4.25
2022-10-28T16:16:30.874Z,3.20
2022-10-28T16:19:07.962Z,4.40
2022-10-28T16:21:35.988Z,4.40
2022-10-28T16:24:02.974Z,4.20
2022-10-28T16:26:31.624Z,4.88
2022-10-28T16:28:58.091Z,4.07
2022-10-28T16:31:28.513Z,4.50
2022-10-28T16:33:55.132Z,4.95
2022-10-28T16:36:21.596Z,4.10
2022-10-28T16:38:48.073Z,3.85
2022-10-28T16:41:17.404Z,5.07
2022-10-28T16:43:44.403Z,4.95
2022-10-28T16:46:12.623Z,5.35
2022-10-28T16:48:39.612Z,5.07
2022-10-28T16:51:12.697Z,3.85
2022-10-28T16:53:39.377Z,4.57
2022-10-28T16:56:08.665Z,4.65
2022-10-28T16:58:39.995Z,5.47
2022-10-28T17:01:06.542Z,6.10
2022-10-28T17:03:33.154Z,5.78
2022-10-28T17:05:59.605Z,4.80
2022-10-28T17:08:48.897Z,4.88
2022-10-28T17:11:16.225Z,5.30
2022-10-28T17:13:42.769Z,4.40
2022-10-28T17:16:09.241Z,5.50
2022-10-28T17:18:35.754Z,4.57
2022-10-28T17:21:03.437Z,4.30
2022-10-28T17:23:29.958Z,4.75
2022-10-28T17:26:01.146Z,5.55
2022-10-28T17:28:27.641Z,4.63
2022-10-28T17:30:54.143Z,3.63
2022-10-28T17:33:20.717Z,3.20
2022-10-28T17:35:47.215Z,4.20
2022-10-28T17:38:13.690Z,3.75
2022-10-28T17:40:40.181Z,3.67
2022-10-28T17:43:06.647Z,3.28
2022-10-28T17:45:33.268Z,3.45
2022-10-28T17:47:59.949Z,3.30
2022-10-28T17:50:26.520Z,3.50
2022-10-28T17:52:53.505Z,3.70
2022-10-28T17:55:20.245Z,3.53
2022-10-28T17:57:47.232Z,3.80
2022-10-28T18:00:14.503Z,3.17
2022-10-28T18:02:41.169Z,3.95
2022-10-28T18:05:08.158Z,3.65
2022-10-28T18:07:34.740Z,3.90
2022-10-28T18:10:01.231Z,3.90
2022-10-28T18:12:27.715Z,2.90
2022-10-28T18:14:54.189Z,3.20
2022-10-28T18:17:20.692Z,4.00
2022-10-28T18:19:47.226Z,3.28
2022-10-28T18:22:13.757Z,3.58
2022-10-28T18:24:40.439Z,3.42
2022-10-28T18:27:06.933Z,3.42
2022-10-28T18:29:33.483Z,3.55
2022-10-28T18:32:04.033Z,4.13
2022-10-28T18:34:31.490Z,3.05
2022-10-28T18:36:58.117Z,3.25
2022-10-28T18:39:24.674Z,3.13
2022-10-28T18:41:51.467Z,3.42
2022-10-28T18:44:21.561Z,3.42
2022-10-28T18:46:48.150Z,4.20
2022-10-28T18:49:14.661Z,3.20
2022-10-28T18:51:41.124Z,3.10
2022-10-28T18:54:07.664Z,3.45
2022-10-28T18:56:34.354Z,3.67
2022-10-28T18:59:03.383Z,4.50
2022-10-28T19:01:31.630Z,3.83
2022-10-28T19:04:00.879Z,3.47
2022-10-28T19:06:32.039Z,3.67
2022-10-28T19:09:01.080Z,3.45
2022-10-28T19:11:30.263Z,3.30
2022-10-28T19:14:01.332Z,3.58
2022-10-28T19:16:28.790Z,3.05
2022-10-28T19:18:59.468Z,4.55
2022-10-28T19:21:27.514Z,3.60
2022-10-28T19:23:54.323Z,3.92
2022-10-28T19:26:22.858Z,4.32
2022-10-28T19:28:50.284Z,3.60
2022-10-28T19:31:19.326Z,3.85
2022-10-28T19:33:46.179Z,4.43
2022-10-28T19:36:24.384Z,3.47
2022-10-28T19:38:53.656Z,3.63
2022-10-28T19:41:23.254Z,3.78
2022-10-28T19:43:58.304Z,3.70
2022-10-28T19:46:26.680Z,4.15
2022-10-28T19:48:55.735Z,4.20
2022-10-28T19:51:28.067Z,4.13
2022-10-28T19:53:57.040Z,3.97
2022-10-28T19:56:24.353Z,4.38
2022-10-28T19:58:53.357Z,4.13
2022-10-28T20:01:24.800Z,4.20
2022-10-28T20:03:52.356Z,4.30
2022-10-28T20:06:21.033Z,4.38
2022-10-28T20:08:49.331Z,4.07
2022-10-28T20:11:24.771Z,4.07
2022-10-28T20:13:58.024Z,3.85
2022-10-28T20:16:25.760Z,4.07
2022-10-28T20:18:54.170Z,4.50
2022-10-28T20:21:21.919Z,3.80
2022-10-28T20:26:17.835Z,4.28
2022-10-28T20:28:44.272Z,4.15
2022-10-28T20:31:13.790Z,3.92
2022-10-28T20:33:42.474Z,3.33
2022-10-28T20:36:28.578Z,4.28
2022-10-28T20:38:57.255Z,3.83
2022-10-28T20:41:24.780Z,3.92
2022-10-28T20:43:52.466Z,3.70
2022-10-28T20:46:20.375Z,3.40
2022-10-28T20:48:47.381Z,3.70
2022-10-28T20:51:13.915Z,3.40
2022-10-28T20:53:40.546Z,3.33
2022-10-28T20:56:08.040Z,3.63
2022-10-28T20:58:35.445Z,3.58
2022-10-28T21:01:12.956Z,3.63
2022-10-28T21:03:42.145Z,4.00
2022-10-28T21:06:08.944Z,3.45
2022-10-28T21:08:35.897Z,4.47
2022-10-28T21:11:06.637Z,4.13
2022-10-28T21:13:33.585Z,4.30
2022-10-28T21:16:04.707Z,4.10
2022-10-28T21:18:31.603Z,4.15
2022-10-28T21:20:59.790Z,3.95
2022-10-28T21:23:28.110Z,4.93
2022-10-28T21:26:02.461Z,3.88
2022-10-28T21:28:30.472Z,4.38
2022-10-28T21:31:18.035Z,3.75
2022-10-28T21:33:45.249Z,3.42
2022-10-28T21:36:17.579Z,3.70
2022-10-28T21:38:44.475Z,3.25
2022-10-28T21:41:16.250Z,4.05
2022-10-28T21:43:44.643Z,4.07
2022-10-28T21:46:11.631Z,4.72
2022-10-28T21:48:38.268Z,3.92
2022-10-28T21:51:10.119Z,3.70
2022-10-28T21:53:40.472Z,3.67
2022-10-28T21:56:19.465Z,3.92
2022-10-28T21:58:47.841Z,5.03
2022-10-28T22:01:20.616Z,4.43
2022-10-28T22:03:47.272Z,3.85
2022-10-28T22:06:13.988Z,4.00
2022-10-28T22:08:40.591Z,3.92
2022-10-28T22:11:11.506Z,3.97
2022-10-28T22:13:38.349Z,3.75
2022-10-28T22:16:07.584Z,4.35
2022-10-28T22:18:36.631Z,3.90
2022-10-28T22:21:07.111Z,3.92
2022-10-28T22:23:34.177Z,4.15
2022-10-28T22:26:02.233Z,3.80
2022-10-28T22:28:28.812Z,3.83
2022-10-28T22:31:02.894Z,3.42
2022-10-28T22:33:29.333Z,4.20
2022-10-28T22:36:07.436Z,3.13
2022-10-28T22:38:33.959Z,4.07
2022-10-28T22:41:04.403Z,3.60
2022-10-28T22:43:31.024Z,4.15
2022-10-28T22:46:01.218Z,3.80
2022-10-28T22:48:28.094Z,4.13
2022-10-28T22:50:55.238Z,4.13
2022-10-28T22:53:21.887Z,3.90
2022-10-28T22:55:48.630Z,3.53
2022-10-28T22:58:17.840Z,3.90
2022-10-28T23:00:45.020Z,3.53
2022-10-28T23:03:12.359Z,3.80
2022-10-28T23:05:39.723Z,3.65
2022-10-28T23:08:07.051Z,3.78
2022-10-28T23:10:33.872Z,4.00
2022-10-28T23:13:02.115Z,4.05
2022-10-28T23:15:30.225Z,4.22
2022-10-28T23:17:57.277Z,3.85
2022-10-28T23:20:25.150Z,4.20
2022-10-28T23:22:55.273Z,4.28
2022-10-28T23:25:21.684Z,4.68
2022-10-28T23:27:48.117Z,4.90
2022-10-28T23:30:14.588Z,4.93
2022-10-28T23:32:41.031Z,4.22
2022-10-28T23:35:07.790Z,4.57
2022-10-28T23:37:34.309Z,3.95
2022-10-28T23:40:00.870Z,4.05
2022-10-28T23:42:28.118Z,4.05
2022-10-28T23:44:54.504Z,4.15
2022-10-28T23:47:21.013Z,4.20
2022-10-28T23:49:47.478Z,4.10
2022-10-28T23:52:13.975Z,4.65
2022-10-28T23:54:40.408Z,3.80
2022-10-28T23:57:08.375Z,4.05
2022-10-28T23:59:34.989Z,4.68
